EGUW - Wattisham
Distance from station: E 5mi, 14km
Updated: 01/18/2018 4:50am
Mostly Cloudy
Mostly Cloudy
 Wind from WNW
Wind: WNW 17 mph , 28 km/h
Temperature: 43°F , 6°C
Wind Chill: 35°F , 2°C
Dew Point: 34°F , 1°C
Humidity: 71%
Barometer: 29.53 inHg , 1000 hPa
Clouds: Mostly Cloudy
Visibility: 6 miles , 10 km
Cloud details: Mostly Cloudy 3000 ft
2018/01/18 12:50 EGUW 181250Z 29015KT 9999 BKN030 06/01 Q1000 BLU NOSIG